Latest Coastal Weather Observations for Frederick Reef

IDQ60701

Issued at 8:12 pm EST Friday 28 April 2017 (issued every 10 minutes, with the page automatically refreshed every 10 minutes)

About coastal observations | Map of coastal stations | Coastal observations for QLD | Marine services | Other Formats
Station Details ID: 200701 Name: FREDERICK REEF Lat: -20.94 Lon: 154.40 Height: 4.9 m
Data from the previous 72 hours. | See also: Recent months for locations in Queensland
Date/Time
EST
Temp
°C
Wind Pressure Rain since
9am
mm
Weather Cloud Vis
km
Sea
Height
m
Swell
Dir  Spd
kts
Gust
kts
hPa Trend Height
m
Period
s
Dir
28/08:00pm 23.1 S 12 18 1014.1 - - - - - - - - -
28/07:30pm 22.7 S 14 18 1014.0 - - - - - - - - -
28/07:00pm 22.6 S 14 18 1013.7 - - - - - - - - -
28/06:30pm 22.5 S 15 20 1013.3 - - - - - - - - -
28/06:00pm 22.3 SSW 2 18 1012.9 - - - - - - - - -
28/05:30pm 22.1 SSW 15 19 1012.6 - - - - - - - - -
28/05:00pm 22.2 SSW 15 18 1012.4 - - - - - - - - -
28/04:30pm 22.7 SSW 16 19 1012.0 - - - - - - - - -
28/04:00pm 22.5 SSW 16 19 1011.8 - - - - - - - - -
28/03:30pm 22.5 SSW 14 18 1011.8 - - - - - - - - -
28/03:00pm 22.6 SSW 16 19 1011.6 - - - - - - - - -
28/02:30pm 22.7 SSW 17 20 1011.6 - - - - - - - - -
28/02:00pm 22.9 SSW 17 20 1011.6 - - - - - - - - -
28/01:30pm 23.0 SSW 17 20 1011.8 - - - - - - - - -
28/01:00pm 23.0 SSW 18 21 1011.9 - - - - - - - - -
28/12:30pm 23.3 SSW 18 22 1012.5 - - - - - - - - -
28/12:00pm 23.3 SSW 17 20 1012.7 - - - - - - - - -
28/11:30am 23.7 SSW 16 19 1013.1 - - - - - - - - -
28/11:00am 23.8 SSW 16 22 1013.3 - - - - - - - - -
28/10:30am 23.9 SSW 16 20 1013.7 - - - - - - - - -
28/10:00am 23.8 SSW 15 18 1013.7 - - - - - - - - -
28/09:30am 23.9 SSW 16 18 1013.9 - - - - - - - - -
28/09:00am 24.0 SSW 16 19 1013.7 - - - - - - - - -
28/08:30am 24.1 SSW 18 21 1013.4 - - - - - - - - -
28/08:00am 24.0 SSW 21 24 1013.1 - - - - - - - - -
28/07:30am 24.0 S 18 22 1012.8 - - - - - - - - -
28/07:00am 24.0 S 17 20 1012.5 - - - - - - - - -
28/06:30am 23.9 SSW 21 24 1012.6 - - - - - - - - -
28/06:00am 23.7 S 22 26 1012.1 - - - - - - - - -
28/05:30am 24.3 S 24 27 1011.4 - - - - - - - - -
28/05:00am 23.5 S 24 28 1011.1 - - - - - - - - -
28/04:30am 23.8 S 26 29 1011.0 - - - - - - - - -
28/04:00am 23.0 S 25 29 1010.8 - - - - - - - - -
28/03:30am 23.0 SSW 25 28 1010.6 - - - - - - - - -
28/03:00am 23.2 S 25 28 1010.4 - - - - - - - - -
28/02:30am 23.0 S 21 24 1010.9 - - - - - - - - -
28/02:00am 22.9 S 13 20 1011.2 - - - - - - - - -
28/01:30am 23.2 S 19 21 1011.5 - - - - - - - - -
28/01:27am 23.1 S 19 21 1011.5 - - - - - - - - -
28/01:00am 24.0 SSW 2 4 1011.3 - - - - - - - - -
28/12:30am 25.8 WSW 1 3 1011.7 - - - - - - - - -
28/12:00am 25.7 CALM 0 0 1011.5 - - - - - - - - -
 
Date/Time
EST
Temp
°C
Wind Pressure Rain since
9am
mm
Weather Cloud Vis
km
Sea
Height
m
Swell
Dir  Spd
kts
Gust
kts
hPa Trend Height
m
Period
s
Dir
27/11:30pm 25.6 CALM 0 1 1012.1 - - - - - - - - -
27/11:00pm 25.9 CALM 0 2 1011.9 - - - - - - - - -
27/10:30pm 25.7 CALM 0 2 1012.2 - - - - - - - - -
27/10:00pm 25.6 CALM 0 2 1012.1 - - - - - - - - -
27/09:30pm 25.8 CALM 0 1 1012.4 - - - - - - - - -
27/09:00pm 25.6 CALM 0 3 1012.4 - - - - - - - - -
27/08:30pm 25.9 CALM 0 1 1012.5 - - - - - - - - -
27/08:00pm 25.9 CALM 0 2 1012.4 - - - - - - - - -
27/07:30pm 25.5 SSW 9 10 1012.2 - - - - - - - - -
27/07:00pm 25.8 SSW 4 4 1011.8 - - - - - - - - -
27/06:30pm 25.6 CALM 0 1 1011.3 - - - - - - - - -
27/06:00pm 25.6 CALM 0 2 1011.0 - - - - - - - - -
27/05:30pm 25.6 SW 2 6 1010.7 - - - - - - - - -
27/05:00pm 25.9 SW 2 7 1010.5 - - - - - - - - -
27/04:30pm 26.1 WSW 5 6 1010.3 - - - - - - - - -
27/04:00pm 25.9 SW 7 9 1010.0 - - - - - - - - -
27/03:30pm 26.0 W 5 6 1009.9 - - - - - - - - -
27/03:00pm 26.0 WSW 5 7 1009.9 - - - - - - - - -
27/02:30pm 26.1 WSW 5 6 1010.3 - - - - - - - - -
27/02:00pm 25.9 WSW 7 8 1010.3 - - - - - - - - -
27/01:30pm 25.5 WSW 7 8 1010.5 - - - - - - - - -
27/01:00pm 25.6 WSW 7 9 1010.7 - - - - - - - - -
27/12:30pm 25.5 WSW 7 8 1011.2 - - - - - - - - -
27/12:00pm 25.3 WSW 7 9 1011.4 - - - - - - - - -
27/11:30am 25.3 WSW 7 9 1012.2 - - - - - - - - -
27/11:00am 25.4 WSW 6 8 1012.5 - - - - - - - - -
27/10:30am 25.5 WSW 5 6 1013.1 - - - - - - - - -
27/10:00am 25.1 WSW 5 6 1013.3 - - - - - - - - -
27/09:30am 25.2 WSW 4 5 1013.4 - - - - - - - - -
27/09:00am 25.2 WSW 5 6 1013.4 - - - - - - - - -
27/08:30am 25.0 WSW 5 7 1013.4 - - - - - - - - -
27/08:00am 25.0 WSW 5 6 1013.0 - - - - - - - - -
27/07:30am 25.0 WSW 4 5 1012.9 - - - - - - - - -
27/07:00am 24.8 W 4 5 1012.3 - - - - - - - - -
27/06:30am 24.7 WSW 3 5 1012.3 - - - - - - - - -
27/06:00am 24.6 W 4 5 1012.1 - - - - - - - - -
27/05:30am 24.4 W 2 5 1011.9 - - - - - - - - -
27/05:00am 24.4 CALM 0 0 1011.6 - - - - - - - - -
27/04:30am 24.4 CALM 0 1 1011.5 - - - - - - - - -
27/04:00am 24.6 W 3 4 1011.3 - - - - - - - - -
27/03:30am 24.6 W 4 5 1011.2 - - - - - - - - -
27/03:00am 24.7 W 5 7 1011.1 - - - - - - - - -
27/02:30am 24.8 W 1 5 1011.7 - - - - - - - - -
27/02:00am 24.5 CALM 0 0 1011.8 - - - - - - - - -
27/01:30am 24.7 W 1 4 1012.2 - - - - - - - - -
27/01:00am 24.9 CALM 0 0 1012.3 - - - - - - - - -
27/12:30am 25.0 W 2 4 1012.6 - - - - - - - - -
27/12:00am 25.0 W 4 6 1012.7 - - - - - - - - -
 
Date/Time
EST
Temp
°C
Wind Pressure Rain since
9am
mm
Weather Cloud Vis
km
Sea
Height
m
Swell
Dir  Spd
kts
Gust
kts
hPa Trend Height
m
Period
s
Dir
26/11:30pm 25.2 W 6 7 1012.8 - - - - - - - - -
26/11:00pm 25.2 WNW 7 9 1012.7 - - - - - - - - -
26/10:30pm 25.3 WNW 7 8 1012.6 - - - - - - - - -
26/10:00pm 25.1 W 6 8 1012.6 - - - - - - - - -
26/09:30pm 25.2 NE 4 5 1012.9 - - - - - - - - -
26/09:00pm 25.2 NE 5 6 1012.8 - - - - - - - - -
26/08:30pm 25.5 E 4 5 1013.0 - - - - - - - - -
26/08:00pm 25.3 SSE 3 6 1013.1 - - - - - - - - -
26/07:30pm 25.4 E 4 5 1012.8 - - - - - - - - -
26/07:00pm 25.6 SSE 2 6 1012.6 - - - - - - - - -
26/06:30pm 25.4 WSW 4 5 1012.4 - - - - - - - - -
26/06:00pm 25.4 WSW 4 5 1012.1 - - - - - - - - -
26/05:30pm 25.5 WSW 4 5 1012.0 - - - - - - - - -
26/05:00pm 25.6 WSW 5 6 1011.9 - - - - - - - - -
26/04:30pm 25.9 W 2 4 1011.8 - - - - - - - - -
26/04:00pm 25.7 WSW 4 6 1011.6 - - - - - - - - -
26/03:30pm 26.3 WSW 4 5 1011.6 - - - - - - - - -
26/03:00pm 25.8 CALM 0 1 1011.4 - - - - - - - - -
26/02:30pm 25.9 SSE 3 5 1011.5 - - - - - - - - -
26/02:00pm 25.9 SSW 4 5 1011.7 - - - - - - - - -
26/01:30pm 25.8 CALM 0 3 1012.0 - - - - - - - - -
26/01:00pm 25.9 CALM 0 2 1012.2 - - - - - - - - -
26/12:30pm 25.9 CALM 0 4 1012.8 - - - - - - - - -
26/12:00pm 25.8 CALM 0 2 1012.9 - - - - - - - - -
26/11:30am 25.4 CALM 0 4 1013.6 - - - - - - - - -
26/11:00am 25.5 SSE 4 5 1013.8 - - - - - - - - -
26/10:30am 25.3 S 3 4 1014.4 - - - - - - - - -
26/10:00am 25.3 SSE 3 4 1014.5 - - - - - - - - -
26/09:30am 25.3 SE 4 5 1014.7 - - - - - - - - -
26/09:00am 25.5 ESE 3 4 1014.5 - - - - - - - - -
26/08:30am 25.3 E 4 5 1014.6 - - - - - - - - -
26/08:00am 25.2 ESE 4 6 1014.3 - - - - - - - - -
26/07:30am 25.3 WSW 4 6 1014.3 - - - - - - - - -
26/07:00am 25.6 WSW 1 5 1014.2 - - - - - - - - -
26/06:30am 25.2 CALM 0 2 1014.0 - - - - - - - - -
26/06:00am 24.9 WSW 3 5 1013.7 - - - - - - - - -
26/05:30am 25.0 CALM 0 0 1013.6 - - - - - - - - -
26/05:00am 24.9 CALM 0 3 1013.3 - - - - - - - - -
26/04:30am 24.8 CALM 0 0 1013.2 - - - - - - - - -
26/04:00am 24.9 CALM 0 0 1012.9 - - - - - - - - -
26/03:30am 24.9 CALM 0 2 1013.0 - - - - - - - - -
26/03:00am 24.9 CALM 0 2 1013.2 - - - - - - - - -
26/02:30am 24.8 CALM 0 2 1013.5 - - - - - - - - -
26/02:00am 25.2 CALM 0 3 1013.7 - - - - - - - - -
26/01:30am 25.3 CALM 0 3 1013.9 - - - - - - - - -
26/01:00am 25.2 CALM 0 2 1013.8 - - - - - - - - -
26/12:30am 25.2 CALM 0 3 1014.2 - - - - - - - - -
26/12:00am 25.4 CALM 0 2 1014.2 - - - - - - - - -
 
Date/Time
EST
Temp
°C
Wind Pressure Rain since
9am
mm
Weather Cloud Vis
km
Sea
Height
m
Swell
Dir  Spd
kts
Gust
kts
hPa Trend Height
m
Period
s
Dir
25/11:30pm 25.2 CALM 0 3 1014.5 - - - - - - - - -
25/11:00pm 25.4 CALM 0 2 1014.8 - - - - - - - - -
25/10:30pm 25.5 CALM 0 2 1015.1 - - - - - - - - -
25/10:00pm 25.3 CALM 0 3 1015.0 - - - - - - - - -
25/09:30pm 25.5 CALM 0 4 1014.9 - - - - - - - - -
25/09:00pm 25.4 CALM 0 3 1015.0 - - - - - - - - -
25/08:30pm 25.4 E 1 2 1015.0 - - - - - - - - -

Other Formats:

Comma delimited format used in spreadsheet applications
http://www.bom.gov.au/fwo/IDQ60701/IDQ60701.94393.axf

JavaScript Object Notation format (JSON) in row-major order
http://www.bom.gov.au/fwo/IDQ60701/IDQ60701.94393.json